sensor_id;sensor_type;location;lat;lon;timestamp;temperature;humidity
23259;DHT22;11798;51.528;7.240;2022-11-24T00:01:22;8.30;99.90
23259;DHT22;11798;51.528;7.240;2022-11-24T00:04:04;8.30;99.90
23259;DHT22;11798;51.528;7.240;2022-11-24T00:06:31;8.30;99.90
23259;DHT22;11798;51.528;7.240;2022-11-24T00:08:58;8.20;99.90
23259;DHT22;11798;51.528;7.240;2022-11-24T00:11:34;8.20;99.90
23259;DHT22;11798;51.528;7.240;2022-11-24T00:14:01;8.20;99.90
23259;DHT22;11798;51.528;7.240;2022-11-24T00:16:29;8.20;99.90
23259;DHT22;11798;51.528;7.240;2022-11-24T00:18:56;8.10;99.90
23259;DHT22;11798;51.528;7.240;2022-11-24T00:21:23;8.10;99.90
23259;DHT22;11798;51.528;7.240;2022-11-24T00:23:50;8.10;99.90
23259;DHT22;11798;51.528;7.240;2022-11-24T00:26:21;8.10;99.90
23259;DHT22;11798;51.528;7.240;2022-11-24T00:28:48;8.10;99.90
23259;DHT22;11798;51.528;7.240;2022-11-24T00:33:48;8.00;99.90
23259;DHT22;11798;51.528;7.240;2022-11-24T00:36:15;8.00;99.90
23259;DHT22;11798;51.528;7.240;2022-11-24T00:38:41;8.00;99.90
23259;DHT22;11798;51.528;7.240;2022-11-24T00:41:07;8.00;99.90
23259;DHT22;11798;51.528;7.240;2022-11-24T00:43:33;7.90;99.90
23259;DHT22;11798;51.528;7.240;2022-11-24T00:45:58;7.90;99.90
23259;DHT22;11798;51.528;7.240;2022-11-24T00:48:24;7.90;99.90
23259;DHT22;11798;51.528;7.240;2022-11-24T00:51:20;7.90;99.90
23259;DHT22;11798;51.528;7.240;2022-11-24T00:53:46;7.90;99.90
23259;DHT22;11798;51.528;7.240;2022-11-24T00:56:12;7.90;99.90
23259;DHT22;11798;51.528;7.240;2022-11-24T00:58:38;7.90;99.90
23259;DHT22;11798;51.528;7.240;2022-11-24T01:01:15;7.90;99.90
23259;DHT22;11798;51.528;7.240;2022-11-24T01:03:41;7.80;99.90
23259;DHT22;11798;51.528;7.240;2022-11-24T01:06:16;7.80;99.90
23259;DHT22;11798;51.528;7.240;2022-11-24T01:08:43;7.90;99.90
23259;DHT22;11798;51.528;7.240;2022-11-24T01:11:13;7.90;99.90
23259;DHT22;11798;51.528;7.240;2022-11-24T01:13:40;7.80;99.90
23259;DHT22;11798;51.528;7.240;2022-11-24T01:16:16;7.80;99.90
23259;DHT22;11798;51.528;7.240;2022-11-24T01:18:43;7.80;99.90
23259;DHT22;11798;51.528;7.240;2022-11-24T01:21:08;7.80;99.90
23259;DHT22;11798;51.528;7.240;2022-11-24T01:23:34;7.70;99.90
23259;DHT22;11798;51.528;7.240;2022-11-24T01:26:03;7.80;99.90
23259;DHT22;11798;51.528;7.240;2022-11-24T01:28:29;7.80;99.90
23259;DHT22;11798;51.528;7.240;2022-11-24T01:30:58;7.70;99.90
23259;DHT22;11798;51.528;7.240;2022-11-24T01:33:24;7.70;99.90
23259;DHT22;11798;51.528;7.240;2022-11-24T01:35:50;7.70;99.90
23259;DHT22;11798;51.528;7.240;2022-11-24T01:38:15;7.70;99.90
23259;DHT22;11798;51.528;7.240;2022-11-24T01:40:41;7.70;99.90
23259;DHT22;11798;51.528;7.240;2022-11-24T01:43:20;7.70;99.90
23259;DHT22;11798;51.528;7.240;2022-11-24T01:45:46;7.70;99.90
23259;DHT22;11798;51.528;7.240;2022-11-24T01:48:21;7.70;99.90
23259;DHT22;11798;51.528;7.240;2022-11-24T01:50:54;7.70;99.90
23259;DHT22;11798;51.528;7.240;2022-11-24T01:53:23;7.70;99.90
23259;DHT22;11798;51.528;7.240;2022-11-24T01:55:50;7.70;99.90
23259;DHT22;11798;51.528;7.240;2022-11-24T01:58:23;7.70;99.90
23259;DHT22;11798;51.528;7.240;2022-11-24T02:00:51;7.70;99.90
23259;DHT22;11798;51.528;7.240;2022-11-24T02:03:20;7.60;99.90
23259;DHT22;11798;51.528;7.240;2022-11-24T02:05:58;7.70;99.90
23259;DHT22;11798;51.528;7.240;2022-11-24T02:08:52;7.70;99.90
23259;DHT22;11798;51.528;7.240;2022-11-24T02:11:22;7.80;99.90
23259;DHT22;11798;51.528;7.240;2022-11-24T02:13:49;7.80;99.90
23259;DHT22;11798;51.528;7.240;2022-11-24T02:16:16;7.80;99.90
23259;DHT22;11798;51.528;7.240;2022-11-24T02:18:42;7.90;99.90
23259;DHT22;11798;51.528;7.240;2022-11-24T02:21:10;7.90;99.90
23259;DHT22;11798;51.528;7.240;2022-11-24T02:24:01;7.90;99.90
23259;DHT22;11798;51.528;7.240;2022-11-24T02:26:45;7.90;99.90
23259;DHT22;11798;51.528;7.240;2022-11-24T02:29:12;8.00;99.90
23259;DHT22;11798;51.528;7.240;2022-11-24T02:31:42;8.00;99.90
23259;DHT22;11798;51.528;7.240;2022-11-24T02:34:09;8.00;99.90
23259;DHT22;11798;51.528;7.240;2022-11-24T02:36:34;8.00;99.90
23259;DHT22;11798;51.528;7.240;2022-11-24T02:39:00;7.90;99.90
23259;DHT22;11798;51.528;7.240;2022-11-24T02:41:26;7.90;99.90
23259;DHT22;11798;51.528;7.240;2022-11-24T02:43:58;7.90;99.90
23259;DHT22;11798;51.528;7.240;2022-11-24T02:46:25;7.90;99.90
23259;DHT22;11798;51.528;7.240;2022-11-24T02:48:50;7.90;99.90
23259;DHT22;11798;51.528;7.240;2022-11-24T02:51:16;7.90;99.90
23259;DHT22;11798;51.528;7.240;2022-11-24T02:53:42;8.00;99.90
23259;DHT22;11798;51.528;7.240;2022-11-24T02:56:07;8.00;99.90
23259;DHT22;11798;51.528;7.240;2022-11-24T02:58:33;8.00;99.90
23259;DHT22;11798;51.528;7.240;2022-11-24T03:00:59;8.00;99.90
23259;DHT22;11798;51.528;7.240;2022-11-24T03:03:25;7.90;99.90
23259;DHT22;11798;51.528;7.240;2022-11-24T03:05:50;7.90;99.90
23259;DHT22;11798;51.528;7.240;2022-11-24T03:08:16;7.90;99.90
23259;DHT22;11798;51.528;7.240;2022-11-24T03:10:42;7.90;99.90
23259;DHT22;11798;51.528;7.240;2022-11-24T03:13:08;7.90;99.90
23259;DHT22;11798;51.528;7.240;2022-11-24T03:15:34;7.90;99.90
23259;DHT22;11798;51.528;7.240;2022-11-24T03:18:00;7.90;99.90
23259;DHT22;11798;51.528;7.240;2022-11-24T03:20:26;7.90;99.90
23259;DHT22;11798;51.528;7.240;2022-11-24T03:22:52;7.90;99.90
23259;DHT22;11798;51.528;7.240;2022-11-24T03:25:18;7.90;99.90
23259;DHT22;11798;51.528;7.240;2022-11-24T03:27:44;7.90;99.90
23259;DHT22;11798;51.528;7.240;2022-11-24T03:30:10;7.90;99.90
23259;DHT22;11798;51.528;7.240;2022-11-24T03:32:36;8.00;99.90
23259;DHT22;11798;51.528;7.240;2022-11-24T03:35:02;8.00;99.90
23259;DHT22;11798;51.528;7.240;2022-11-24T03:37:28;8.00;99.90
23259;DHT22;11798;51.528;7.240;2022-11-24T03:39:53;8.00;99.90
23259;DHT22;11798;51.528;7.240;2022-11-24T03:42:19;8.00;99.90
23259;DHT22;11798;51.528;7.240;2022-11-24T03:44:44;8.00;99.90
23259;DHT22;11798;51.528;7.240;2022-11-24T03:47:11;8.00;99.90
23259;DHT22;11798;51.528;7.240;2022-11-24T03:49:37;8.00;99.90
23259;DHT22;11798;51.528;7.240;2022-11-24T03:52:03;8.00;99.90
23259;DHT22;11798;51.528;7.240;2022-11-24T03:54:29;8.00;99.90
23259;DHT22;11798;51.528;7.240;2022-11-24T03:56:54;8.10;99.90
23259;DHT22;11798;51.528;7.240;2022-11-24T03:59:20;8.10;99.90
23259;DHT22;11798;51.528;7.240;2022-11-24T04:01:45;8.10;99.90
23259;DHT22;11798;51.528;7.240;2022-11-24T04:04:11;8.10;99.90
23259;DHT22;11798;51.528;7.240;2022-11-24T04:06:37;8.00;99.90
23259;DHT22;11798;51.528;7.240;2022-11-24T04:09:03;8.00;99.90
23259;DHT22;11798;51.528;7.240;2022-11-24T04:11:29;8.10;99.90
23259;DHT22;11798;51.528;7.240;2022-11-24T04:14:13;8.10;99.90
23259;DHT22;11798;51.528;7.240;2022-11-24T04:16:39;8.10;99.90
23259;DHT22;11798;51.528;7.240;2022-11-24T04:19:05;8.10;99.90
23259;DHT22;11798;51.528;7.240;2022-11-24T04:21:30;8.20;99.90
23259;DHT22;11798;51.528;7.240;2022-11-24T04:23:56;8.20;99.90
23259;DHT22;11798;51.528;7.240;2022-11-24T04:26:22;8.30;99.90
23259;DHT22;11798;51.528;7.240;2022-11-24T04:28:47;8.30;99.90
23259;DHT22;11798;51.528;7.240;2022-11-24T04:31:13;8.30;99.90
23259;DHT22;11798;51.528;7.240;2022-11-24T04:33:39;8.30;99.90
23259;DHT22;11798;51.528;7.240;2022-11-24T04:36:05;8.40;99.90
23259;DHT22;11798;51.528;7.240;2022-11-24T04:38:30;8.40;99.90
23259;DHT22;11798;51.528;7.240;2022-11-24T04:41:01;8.40;99.90
23259;DHT22;11798;51.528;7.240;2022-11-24T04:43:28;8.40;99.90
23259;DHT22;11798;51.528;7.240;2022-11-24T04:45:53;8.50;99.90
23259;DHT22;11798;51.528;7.240;2022-11-24T04:48:19;8.40;99.90
23259;DHT22;11798;51.528;7.240;2022-11-24T04:50:45;8.50;99.90
23259;DHT22;11798;51.528;7.240;2022-11-24T04:53:11;8.50;99.90
23259;DHT22;11798;51.528;7.240;2022-11-24T04:55:38;8.50;99.90
23259;DHT22;11798;51.528;7.240;2022-11-24T04:58:09;8.50;99.90
23259;DHT22;11798;51.528;7.240;2022-11-24T05:00:35;8.50;99.90
23259;DHT22;11798;51.528;7.240;2022-11-24T05:03:01;8.50;99.90
23259;DHT22;11798;51.528;7.240;2022-11-24T05:05:27;8.50;99.90
23259;DHT22;11798;51.528;7.240;2022-11-24T05:07:52;8.50;99.90
23259;DHT22;11798;51.528;7.240;2022-11-24T05:10:18;8.50;99.90
23259;DHT22;11798;51.528;7.240;2022-11-24T05:13:08;8.50;99.90
23259;DHT22;11798;51.528;7.240;2022-11-24T05:15:36;8.50;99.90
23259;DHT22;11798;51.528;7.240;2022-11-24T05:18:04;8.50;99.90
23259;DHT22;11798;51.528;7.240;2022-11-24T05:20:30;8.50;99.90
23259;DHT22;11798;51.528;7.240;2022-11-24T05:22:58;8.50;99.90
23259;DHT22;11798;51.528;7.240;2022-11-24T05:25:25;8.50;99.90
23259;DHT22;11798;51.528;7.240;2022-11-24T05:27:50;8.50;99.90
23259;DHT22;11798;51.528;7.240;2022-11-24T05:30:16;8.60;99.90
23259;DHT22;11798;51.528;7.240;2022-11-24T05:32:41;8.60;99.90
23259;DHT22;11798;51.528;7.240;2022-11-24T05:35:07;8.60;99.90
23259;DHT22;11798;51.528;7.240;2022-11-24T05:37:34;8.60;99.90
23259;DHT22;11798;51.528;7.240;2022-11-24T05:39:59;8.60;99.90
23259;DHT22;11798;51.528;7.240;2022-11-24T05:42:25;8.60;99.90
23259;DHT22;11798;51.528;7.240;2022-11-24T05:45:11;8.60;99.90
23259;DHT22;11798;51.528;7.240;2022-11-24T05:47:38;8.60;99.90
23259;DHT22;11798;51.528;7.240;2022-11-24T05:50:04;8.60;99.90
23259;DHT22;11798;51.528;7.240;2022-11-24T05:52:30;8.70;99.90
23259;DHT22;11798;51.528;7.240;2022-11-24T05:54:55;8.70;99.90
23259;DHT22;11798;51.528;7.240;2022-11-24T05:57:21;8.80;99.90
23259;DHT22;11798;51.528;7.240;2022-11-24T05:59:46;8.70;99.90
23259;DHT22;11798;51.528;7.240;2022-11-24T06:02:12;8.70;99.90
23259;DHT22;11798;51.528;7.240;2022-11-24T06:04:38;8.70;99.90
23259;DHT22;11798;51.528;7.240;2022-11-24T06:07:07;8.80;99.90
23259;DHT22;11798;51.528;7.240;2022-11-24T06:09:39;8.80;99.90
23259;DHT22;11798;51.528;7.240;2022-11-24T06:12:06;8.80;99.90
23259;DHT22;11798;51.528;7.240;2022-11-24T06:14:32;8.80;99.90
23259;DHT22;11798;51.528;7.240;2022-11-24T06:16:57;8.80;99.90
23259;DHT22;11798;51.528;7.240;2022-11-24T06:19:23;8.80;99.90
23259;DHT22;11798;51.528;7.240;2022-11-24T06:21:49;8.80;99.90
23259;DHT22;11798;51.528;7.240;2022-11-24T06:24:14;8.90;99.90
23259;DHT22;11798;51.528;7.240;2022-11-24T06:26:40;8.80;99.90
23259;DHT22;11798;51.528;7.240;2022-11-24T06:29:06;8.90;99.90
23259;DHT22;11798;51.528;7.240;2022-11-24T06:31:32;8.80;99.90
23259;DHT22;11798;51.528;7.240;2022-11-24T06:33:58;8.80;99.90
23259;DHT22;11798;51.528;7.240;2022-11-24T06:36:25;8.70;99.90
23259;DHT22;11798;51.528;7.240;2022-11-24T06:38:51;8.70;99.90
23259;DHT22;11798;51.528;7.240;2022-11-24T06:41:16;8.70;99.90
23259;DHT22;11798;51.528;7.240;2022-11-24T06:43:43;8.70;99.90
23259;DHT22;11798;51.528;7.240;2022-11-24T06:46:09;8.70;99.90
23259;DHT22;11798;51.528;7.240;2022-11-24T06:48:35;8.70;99.90
23259;DHT22;11798;51.528;7.240;2022-11-24T06:51:03;8.60;99.90
23259;DHT22;11798;51.528;7.240;2022-11-24T06:53:33;8.60;99.90
23259;DHT22;11798;51.528;7.240;2022-11-24T06:56:07;8.60;99.90
23259;DHT22;11798;51.528;7.240;2022-11-24T06:58:33;8.60;99.90
23259;DHT22;11798;51.528;7.240;2022-11-24T07:00:58;8.60;99.90
23259;DHT22;11798;51.528;7.240;2022-11-24T07:03:24;8.60;99.90
23259;DHT22;11798;51.528;7.240;2022-11-24T07:05:57;8.60;99.90
23259;DHT22;11798;51.528;7.240;2022-11-24T07:08:23;8.50;99.90
23259;DHT22;11798;51.528;7.240;2022-11-24T07:10:48;8.50;99.90
23259;DHT22;11798;51.528;7.240;2022-11-24T07:13:14;8.50;99.90
23259;DHT22;11798;51.528;7.240;2022-11-24T07:15:40;8.50;99.90
23259;DHT22;11798;51.528;7.240;2022-11-24T07:18:05;8.50;99.90
23259;DHT22;11798;51.528;7.240;2022-11-24T07:20:31;8.50;99.90
23259;DHT22;11798;51.528;7.240;2022-11-24T07:22:57;8.50;99.90
23259;DHT22;11798;51.528;7.240;2022-11-24T07:25:24;8.50;99.90
23259;DHT22;11798;51.528;7.240;2022-11-24T07:27:55;8.40;99.90
23259;DHT22;11798;51.528;7.240;2022-11-24T07:30:21;8.40;99.90
23259;DHT22;11798;51.528;7.240;2022-11-24T07:32:46;8.40;99.90
23259;DHT22;11798;51.528;7.240;2022-11-24T07:35:12;8.40;99.90
23259;DHT22;11798;51.528;7.240;2022-11-24T07:37:37;8.50;99.90
23259;DHT22;11798;51.528;7.240;2022-11-24T07:40:04;8.50;99.90
23259;DHT22;11798;51.528;7.240;2022-11-24T07:42:29;8.50;99.90
23259;DHT22;11798;51.528;7.240;2022-11-24T07:44:55;8.60;99.90
23259;DHT22;11798;51.528;7.240;2022-11-24T07:47:20;8.50;99.90
23259;DHT22;11798;51.528;7.240;2022-11-24T07:49:46;8.60;99.90
23259;DHT22;11798;51.528;7.240;2022-11-24T07:52:12;8.50;99.90
23259;DHT22;11798;51.528;7.240;2022-11-24T07:54:37;8.50;99.90
23259;DHT22;11798;51.528;7.240;2022-11-24T07:57:03;8.50;99.90
23259;DHT22;11798;51.528;7.240;2022-11-24T07:59:28;8.60;99.90
23259;DHT22;11798;51.528;7.240;2022-11-24T08:01:54;8.60;99.90
23259;DHT22;11798;51.528;7.240;2022-11-24T08:04:19;8.60;99.90
23259;DHT22;11798;51.528;7.240;2022-11-24T08:06:45;8.60;99.90
23259;DHT22;11798;51.528;7.240;2022-11-24T08:09:10;8.60;99.90
23259;DHT22;11798;51.528;7.240;2022-11-24T08:11:36;8.60;99.90
23259;DHT22;11798;51.528;7.240;2022-11-24T08:14:02;8.50;99.90
23259;DHT22;11798;51.528;7.240;2022-11-24T08:16:27;8.60;99.90
23259;DHT22;11798;51.528;7.240;2022-11-24T08:18:54;8.60;99.90
23259;DHT22;11798;51.528;7.240;2022-11-24T08:21:21;8.60;99.90
23259;DHT22;11798;51.528;7.240;2022-11-24T08:23:47;8.60;99.90
23259;DHT22;11798;51.528;7.240;2022-11-24T08:26:14;8.50;99.90
23259;DHT22;11798;51.528;7.240;2022-11-24T08:28:43;8.50;99.90
23259;DHT22;11798;51.528;7.240;2022-11-24T08:31:12;8.50;99.90
23259;DHT22;11798;51.528;7.240;2022-11-24T08:33:39;8.50;99.90
23259;DHT22;11798;51.528;7.240;2022-11-24T08:36:16;8.60;99.90
23259;DHT22;11798;51.528;7.240;2022-11-24T08:38:42;8.50;99.90
23259;DHT22;11798;51.528;7.240;2022-11-24T08:41:11;8.50;99.90
23259;DHT22;11798;51.528;7.240;2022-11-24T08:43:37;8.50;99.90
23259;DHT22;11798;51.528;7.240;2022-11-24T08:46:09;8.60;99.90
23259;DHT22;11798;51.528;7.240;2022-11-24T08:48:36;8.60;99.90
23259;DHT22;11798;51.528;7.240;2022-11-24T08:51:10;8.60;99.90
23259;DHT22;11798;51.528;7.240;2022-11-24T08:53:36;8.70;99.90
23259;DHT22;11798;51.528;7.240;2022-11-24T08:56:02;8.70;99.90
23259;DHT22;11798;51.528;7.240;2022-11-24T08:58:29;8.70;99.90
23259;DHT22;11798;51.528;7.240;2022-11-24T09:00:55;8.70;99.90
23259;DHT22;11798;51.528;7.240;2022-11-24T09:03:20;8.70;99.90
23259;DHT22;11798;51.528;7.240;2022-11-24T09:05:46;8.70;99.90
23259;DHT22;11798;51.528;7.240;2022-11-24T09:08:11;8.80;99.90
23259;DHT22;11798;51.528;7.240;2022-11-24T09:10:37;8.70;99.90
23259;DHT22;11798;51.528;7.240;2022-11-24T09:13:03;8.70;99.90
23259;DHT22;11798;51.528;7.240;2022-11-24T09:15:29;8.70;99.90
23259;DHT22;11798;51.528;7.240;2022-11-24T09:17:54;8.70;99.90
23259;DHT22;11798;51.528;7.240;2022-11-24T09:20:21;8.70;99.90
23259;DHT22;11798;51.528;7.240;2022-11-24T09:22:46;8.70;99.90
23259;DHT22;11798;51.528;7.240;2022-11-24T09:25:12;8.70;99.90
23259;DHT22;11798;51.528;7.240;2022-11-24T09:27:39;8.80;99.90
23259;DHT22;11798;51.528;7.240;2022-11-24T09:30:05;8.80;99.90
23259;DHT22;11798;51.528;7.240;2022-11-24T09:32:31;8.80;99.90
23259;DHT22;11798;51.528;7.240;2022-11-24T09:34:57;8.70;99.90
23259;DHT22;11798;51.528;7.240;2022-11-24T09:37:22;8.70;99.90
23259;DHT22;11798;51.528;7.240;2022-11-24T09:39:48;8.70;99.90
23259;DHT22;11798;51.528;7.240;2022-11-24T09:42:16;8.70;99.90
23259;DHT22;11798;51.528;7.240;2022-11-24T09:45:49;8.70;99.90
23259;DHT22;11798;51.528;7.240;2022-11-24T09:50:25;8.80;99.90
23259;DHT22;11798;51.528;7.240;2022-11-24T09:52:56;8.90;99.90
23259;DHT22;11798;51.528;7.240;2022-11-24T09:55:42;8.90;99.90
23259;DHT22;11798;51.528;7.240;2022-11-24T10:00:51;8.90;99.90
23259;DHT22;11798;51.528;7.240;2022-11-24T10:03:32;8.80;99.90
23259;DHT22;11798;51.528;7.240;2022-11-24T10:06:02;8.90;99.90
23259;DHT22;11798;51.528;7.240;2022-11-24T10:11:11;9.00;99.90
23259;DHT22;11798;51.528;7.240;2022-11-24T10:17:00;9.00;99.90
23259;DHT22;11798;51.528;7.240;2022-11-24T10:22:22;9.00;99.90
23259;DHT22;11798;51.528;7.240;2022-11-24T10:25:11;9.10;99.90
23259;DHT22;11798;51.528;7.240;2022-11-24T10:27:48;9.00;99.90
23259;DHT22;11798;51.528;7.240;2022-11-24T10:30:17;9.10;99.90
23259;DHT22;11798;51.528;7.240;2022-11-24T10:32:52;9.20;99.90
23259;DHT22;11798;51.528;7.240;2022-11-24T10:35:28;9.20;99.90
23259;DHT22;11798;51.528;7.240;2022-11-24T10:38:13;9.20;99.90
23259;DHT22;11798;51.528;7.240;2022-11-24T10:40:43;9.20;99.90
23259;DHT22;11798;51.528;7.240;2022-11-24T10:43:10;9.20;99.90
23259;DHT22;11798;51.528;7.240;2022-11-24T10:45:37;9.20;99.90
23259;DHT22;11798;51.528;7.240;2022-11-24T10:48:25;9.20;99.90
23259;DHT22;11798;51.528;7.240;2022-11-24T10:51:15;9.20;99.90
23259;DHT22;11798;51.528;7.240;2022-11-24T10:53:42;9.30;99.90
23259;DHT22;11798;51.528;7.240;2022-11-24T10:56:09;9.30;99.90
23259;DHT22;11798;51.528;7.240;2022-11-24T10:58:36;9.30;99.90
23259;DHT22;11798;51.528;7.240;2022-11-24T11:01:31;9.50;99.90
23259;DHT22;11798;51.528;7.240;2022-11-24T11:03:59;9.60;99.90
23259;DHT22;11798;51.528;7.240;2022-11-24T11:06:30;9.70;99.90
23259;DHT22;11798;51.528;7.240;2022-11-24T11:11:31;9.80;99.90
23259;DHT22;11798;51.528;7.240;2022-11-24T11:13:59;9.90;99.90
23259;DHT22;11798;51.528;7.240;2022-11-24T11:19:02;10.00;99.90
23259;DHT22;11798;51.528;7.240;2022-11-24T11:21:36;10.10;99.90
23259;DHT22;11798;51.528;7.240;2022-11-24T11:24:05;10.00;99.90
23259;DHT22;11798;51.528;7.240;2022-11-24T11:26:38;10.10;99.90
23259;DHT22;11798;51.528;7.240;2022-11-24T11:31:33;10.00;99.90
23259;DHT22;11798;51.528;7.240;2022-11-24T11:36:27;10.00;99.90
23259;DHT22;11798;51.528;7.240;2022-11-24T11:38:53;10.00;99.90
23259;DHT22;11798;51.528;7.240;2022-11-24T11:41:33;10.10;99.90
23259;DHT22;11798;51.528;7.240;2022-11-24T11:44:16;10.10;99.90
23259;DHT22;11798;51.528;7.240;2022-11-24T11:46:46;10.10;99.90
23259;DHT22;11798;51.528;7.240;2022-11-24T11:49:12;10.10;99.90
23259;DHT22;11798;51.528;7.240;2022-11-24T11:52:00;10.10;99.90
23259;DHT22;11798;51.528;7.240;2022-11-24T11:54:52;10.20;99.90
23259;DHT22;11798;51.528;7.240;2022-11-24T11:57:47;10.20;99.90
23259;DHT22;11798;51.528;7.240;2022-11-24T12:00:16;10.20;99.90
23259;DHT22;11798;51.528;7.240;2022-11-24T12:08:43;10.20;99.90
23259;DHT22;11798;51.528;7.240;2022-11-24T12:17:20;10.30;99.90
23259;DHT22;11798;51.528;7.240;2022-11-24T12:23:01;10.30;99.90
23259;DHT22;11798;51.528;7.240;2022-11-24T12:25:53;10.20;99.90
23259;DHT22;11798;51.528;7.240;2022-11-24T12:42:17;10.20;99.90
23259;DHT22;11798;51.528;7.240;2022-11-24T12:44:46;10.20;99.90
23259;DHT22;11798;51.528;7.240;2022-11-24T12:50:11;10.20;99.90
23259;DHT22;11798;51.528;7.240;2022-11-24T12:52:46;10.20;99.90
23259;DHT22;11798;51.528;7.240;2022-11-24T12:55:18;10.10;99.90
23259;DHT22;11798;51.528;7.240;2022-11-24T13:00:22;10.20;99.90
23259;DHT22;11798;51.528;7.240;2022-11-24T13:06:15;10.30;99.90
23259;DHT22;11798;51.528;7.240;2022-11-24T13:08:42;10.30;99.90
23259;DHT22;11798;51.528;7.240;2022-11-24T13:17:00;10.40;99.90
23259;DHT22;11798;51.528;7.240;2022-11-24T13:19:31;10.40;99.90
23259;DHT22;11798;51.528;7.240;2022-11-24T13:24:37;10.30;99.90
23259;DHT22;11798;51.528;7.240;2022-11-24T13:29:45;10.30;99.90
23259;DHT22;11798;51.528;7.240;2022-11-24T13:42:31;10.10;99.90
23259;DHT22;11798;51.528;7.240;2022-11-24T13:56:03;10.20;99.90
23259;DHT22;11798;51.528;7.240;2022-11-24T13:58:40;10.10;99.90
23259;DHT22;11798;51.528;7.240;2022-11-24T14:07:01;10.10;99.90
23259;DHT22;11798;51.528;7.240;2022-11-24T14:09:16;10.10;99.90
23259;DHT22;11798;51.528;7.240;2022-11-24T14:11:43;10.10;99.90
23259;DHT22;11798;51.528;7.240;2022-11-24T14:14:19;10.10;99.90
23259;DHT22;11798;51.528;7.240;2022-11-24T14:16:46;10.10;99.90
23259;DHT22;11798;51.528;7.240;2022-11-24T14:19:17;10.10;99.90
23259;DHT22;11798;51.528;7.240;2022-11-24T14:21:43;10.10;99.90
23259;DHT22;11798;51.528;7.240;2022-11-24T14:24:21;10.00;99.90
23259;DHT22;11798;51.528;7.240;2022-11-24T14:26:48;10.00;99.90
23259;DHT22;11798;51.528;7.240;2022-11-24T14:29:15;10.00;99.90
23259;DHT22;11798;51.528;7.240;2022-11-24T14:31:55;9.90;99.90
23259;DHT22;11798;51.528;7.240;2022-11-24T14:34:22;9.90;99.90
23259;DHT22;11798;51.528;7.240;2022-11-24T14:36:49;9.90;99.90
23259;DHT22;11798;51.528;7.240;2022-11-24T14:39:17;9.90;99.90
23259;DHT22;11798;51.528;7.240;2022-11-24T14:41:50;9.90;99.90
23259;DHT22;11798;51.528;7.240;2022-11-24T14:44:25;9.80;99.90
23259;DHT22;11798;51.528;7.240;2022-11-24T14:47:50;9.80;99.90
23259;DHT22;11798;51.528;7.240;2022-11-24T14:49:51;9.80;99.90
23259;DHT22;11798;51.528;7.240;2022-11-24T14:52:19;9.70;99.90
23259;DHT22;11798;51.528;7.240;2022-11-24T14:54:52;9.70;99.90
23259;DHT22;11798;51.528;7.240;2022-11-24T14:57:24;9.70;99.90
23259;DHT22;11798;51.528;7.240;2022-11-24T15:05:10;9.60;99.90
23259;DHT22;11798;51.528;7.240;2022-11-24T15:07:39;9.50;99.90
23259;DHT22;11798;51.528;7.240;2022-11-24T15:12:53;9.40;99.90
23259;DHT22;11798;51.528;7.240;2022-11-24T15:15:22;9.40;99.90
23259;DHT22;11798;51.528;7.240;2022-11-24T15:17:52;9.40;99.90
23259;DHT22;11798;51.528;7.240;2022-11-24T15:23:24;9.30;99.90
23259;DHT22;11798;51.528;7.240;2022-11-24T15:28:20;9.20;99.90
23259;DHT22;11798;51.528;7.240;2022-11-24T15:30:54;9.20;99.90
23259;DHT22;11798;51.528;7.240;2022-11-24T15:33:22;9.10;99.90
23259;DHT22;11798;51.528;7.240;2022-11-24T15:35:48;9.00;99.90
23259;DHT22;11798;51.528;7.240;2022-11-24T15:38:14;9.00;99.90
23259;DHT22;11798;51.528;7.240;2022-11-24T15:40:43;8.90;99.90
23259;DHT22;11798;51.528;7.240;2022-11-24T15:43:32;8.90;99.90
23259;DHT22;11798;51.528;7.240;2022-11-24T15:45:59;8.90;99.90
23259;DHT22;11798;51.528;7.240;2022-11-24T15:48:25;8.80;99.90
23259;DHT22;11798;51.528;7.240;2022-11-24T15:50:52;8.60;99.90
23259;DHT22;11798;51.528;7.240;2022-11-24T15:55:48;8.60;99.90
23259;DHT22;11798;51.528;7.240;2022-11-24T15:58:15;8.50;99.90
23259;DHT22;11798;51.528;7.240;2022-11-24T16:00:42;8.40;99.90
23259;DHT22;11798;51.528;7.240;2022-11-24T16:03:08;8.30;99.90
23259;DHT22;11798;51.528;7.240;2022-11-24T16:05:35;8.30;99.90
23259;DHT22;11798;51.528;7.240;2022-11-24T16:08:01;8.20;99.90
23259;DHT22;11798;51.528;7.240;2022-11-24T16:10:29;8.20;99.90
23259;DHT22;11798;51.528;7.240;2022-11-24T16:12:55;8.10;99.90
23259;DHT22;11798;51.528;7.240;2022-11-24T16:15:21;8.00;99.90
23259;DHT22;11798;51.528;7.240;2022-11-24T16:17:47;8.00;99.90
23259;DHT22;11798;51.528;7.240;2022-11-24T16:20:13;8.00;99.90
23259;DHT22;11798;51.528;7.240;2022-11-24T16:22:38;7.90;99.90
23259;DHT22;11798;51.528;7.240;2022-11-24T16:25:04;7.90;99.90
23259;DHT22;11798;51.528;7.240;2022-11-24T16:27:30;7.90;99.90
23259;DHT22;11798;51.528;7.240;2022-11-24T16:29:56;7.90;99.90
23259;DHT22;11798;51.528;7.240;2022-11-24T16:32:21;7.90;99.90
23259;DHT22;11798;51.528;7.240;2022-11-24T16:34:47;7.90;99.90
23259;DHT22;11798;51.528;7.240;2022-11-24T16:37:13;7.90;99.90
23259;DHT22;11798;51.528;7.240;2022-11-24T16:39:38;7.90;99.90
23259;DHT22;11798;51.528;7.240;2022-11-24T16:42:04;7.90;99.90
23259;DHT22;11798;51.528;7.240;2022-11-24T16:44:30;7.90;99.90
23259;DHT22;11798;51.528;7.240;2022-11-24T16:46:55;7.90;99.90
23259;DHT22;11798;51.528;7.240;2022-11-24T16:49:21;7.90;99.90
23259;DHT22;11798;51.528;7.240;2022-11-24T16:51:47;7.90;99.90
23259;DHT22;11798;51.528;7.240;2022-11-24T16:54:12;7.80;99.90
23259;DHT22;11798;51.528;7.240;2022-11-24T16:56:38;7.70;99.90
23259;DHT22;11798;51.528;7.240;2022-11-24T16:59:04;7.70;99.90
23259;DHT22;11798;51.528;7.240;2022-11-24T17:01:30;7.70;99.90
23259;DHT22;11798;51.528;7.240;2022-11-24T17:03:57;7.60;99.90
23259;DHT22;11798;51.528;7.240;2022-11-24T17:06:23;7.60;99.90
23259;DHT22;11798;51.528;7.240;2022-11-24T17:08:49;7.60;99.90
23259;DHT22;11798;51.528;7.240;2022-11-24T17:11:20;7.60;99.90
23259;DHT22;11798;51.528;7.240;2022-11-24T17:13:46;7.60;99.90
23259;DHT22;11798;51.528;7.240;2022-11-24T17:16:19;7.60;99.90
23259;DHT22;11798;51.528;7.240;2022-11-24T17:18:45;7.70;99.90
23259;DHT22;11798;51.528;7.240;2022-11-24T17:21:12;7.70;99.90
23259;DHT22;11798;51.528;7.240;2022-11-24T17:23:39;7.70;99.90
23259;DHT22;11798;51.528;7.240;2022-11-24T17:26:07;7.70;99.90
23259;DHT22;11798;51.528;7.240;2022-11-24T17:28:34;7.70;99.90
23259;DHT22;11798;51.528;7.240;2022-11-24T17:31:20;7.70;99.90
23259;DHT22;11798;51.528;7.240;2022-11-24T17:33:47;7.80;99.90
23259;DHT22;11798;51.528;7.240;2022-11-24T17:36:12;7.90;99.90
23259;DHT22;11798;51.528;7.240;2022-11-24T17:38:38;7.90;99.90
23259;DHT22;11798;51.528;7.240;2022-11-24T17:41:04;7.90;99.90
23259;DHT22;11798;51.528;7.240;2022-11-24T17:43:29;8.00;99.90
23259;DHT22;11798;51.528;7.240;2022-11-24T17:45:57;8.00;99.90
23259;DHT22;11798;51.528;7.240;2022-11-24T17:48:24;8.10;99.90
23259;DHT22;11798;51.528;7.240;2022-11-24T17:50:59;8.10;99.90
23259;DHT22;11798;51.528;7.240;2022-11-24T17:53:25;8.10;99.90